sensor_id;sensor_type;location;lat;lon;timestamp;temperature;humidity
59977;DHT22;45837;51.076;3.578;2023-02-01T00:00:34;20.10;54.50
59977;DHT22;45837;51.076;3.578;2023-02-01T00:03:00;20.10;54.60
59977;DHT22;45837;51.076;3.578;2023-02-01T00:05:26;20.00;54.40
59977;DHT22;45837;51.076;3.578;2023-02-01T00:07:52;20.00;54.40
59977;DHT22;45837;51.076;3.578;2023-02-01T00:10:18;20.00;54.30
59977;DHT22;45837;51.076;3.578;2023-02-01T00:12:44;20.00;54.30
59977;DHT22;45837;51.076;3.578;2023-02-01T00:15:09;20.00;54.30
59977;DHT22;45837;51.076;3.578;2023-02-01T00:17:35;20.00;54.30
59977;DHT22;45837;51.076;3.578;2023-02-01T00:20:01;20.00;54.30
59977;DHT22;45837;51.076;3.578;2023-02-01T00:22:27;20.00;54.50
59977;DHT22;45837;51.076;3.578;2023-02-01T00:24:53;19.90;54.40
59977;DHT22;45837;51.076;3.578;2023-02-01T00:27:18;19.90;54.30
59977;DHT22;45837;51.076;3.578;2023-02-01T00:29:46;19.90;54.20
59977;DHT22;45837;51.076;3.578;2023-02-01T00:32:12;19.90;54.30
59977;DHT22;45837;51.076;3.578;2023-02-01T00:34:38;19.90;54.30
59977;DHT22;45837;51.076;3.578;2023-02-01T00:37:04;19.90;54.30
59977;DHT22;45837;51.076;3.578;2023-02-01T00:39:30;19.90;54.30
59977;DHT22;45837;51.076;3.578;2023-02-01T00:41:56;19.90;54.20
59977;DHT22;45837;51.076;3.578;2023-02-01T00:44:21;19.90;55.00
59977;DHT22;45837;51.076;3.578;2023-02-01T00:46:47;19.80;54.20
59977;DHT22;45837;51.076;3.578;2023-02-01T00:49:13;19.80;54.30
59977;DHT22;45837;51.076;3.578;2023-02-01T00:51:38;19.80;54.20
59977;DHT22;45837;51.076;3.578;2023-02-01T00:54:04;19.80;54.20
59977;DHT22;45837;51.076;3.578;2023-02-01T00:56:31;19.80;54.30
59977;DHT22;45837;51.076;3.578;2023-02-01T00:58:56;19.70;54.30
59977;DHT22;45837;51.076;3.578;2023-02-01T01:01:23;19.70;54.10
59977;DHT22;45837;51.076;3.578;2023-02-01T01:03:50;19.70;54.10
59977;DHT22;45837;51.076;3.578;2023-02-01T01:06:17;19.70;54.20
59977;DHT22;45837;51.076;3.578;2023-02-01T01:08:43;19.70;54.10
59977;DHT22;45837;51.076;3.578;2023-02-01T01:11:13;19.70;54.10
59977;DHT22;45837;51.076;3.578;2023-02-01T01:13:39;19.70;54.10
59977;DHT22;45837;51.076;3.578;2023-02-01T01:16:06;19.70;54.10
59977;DHT22;45837;51.076;3.578;2023-02-01T01:18:33;19.60;53.90
59977;DHT22;45837;51.076;3.578;2023-02-01T01:20:59;19.60;54.10
59977;DHT22;45837;51.076;3.578;2023-02-01T01:23:25;19.60;54.10
59977;DHT22;45837;51.076;3.578;2023-02-01T01:25:51;19.60;54.10
59977;DHT22;45837;51.076;3.578;2023-02-01T01:28:17;19.60;54.10
59977;DHT22;45837;51.076;3.578;2023-02-01T01:30:43;19.60;54.10
59977;DHT22;45837;51.076;3.578;2023-02-01T01:33:09;19.60;54.00
59977;DHT22;45837;51.076;3.578;2023-02-01T01:35:35;19.60;54.00
59977;DHT22;45837;51.076;3.578;2023-02-01T01:38:01;19.50;54.20
59977;DHT22;45837;51.076;3.578;2023-02-01T01:40:27;19.50;54.00
59977;DHT22;45837;51.076;3.578;2023-02-01T01:42:53;19.50;53.90
59977;DHT22;45837;51.076;3.578;2023-02-01T01:45:30;19.60;54.00
59977;DHT22;45837;51.076;3.578;2023-02-01T01:48:07;19.50;53.80
59977;DHT22;45837;51.076;3.578;2023-02-01T01:50:42;19.50;53.90
59977;DHT22;45837;51.076;3.578;2023-02-01T01:53:11;19.50;53.80
59977;DHT22;45837;51.076;3.578;2023-02-01T01:55:38;19.50;53.80
59977;DHT22;45837;51.076;3.578;2023-02-01T01:58:05;19.40;53.80
59977;DHT22;45837;51.076;3.578;2023-02-01T02:00:33;19.50;53.90
59977;DHT22;45837;51.076;3.578;2023-02-01T02:03:21;19.50;53.90
59977;DHT22;45837;51.076;3.578;2023-02-01T02:05:45;19.50;53.90
59977;DHT22;45837;51.076;3.578;2023-02-01T02:08:12;19.40;53.80
59977;DHT22;45837;51.076;3.578;2023-02-01T02:10:37;19.40;53.90
59977;DHT22;45837;51.076;3.578;2023-02-01T02:13:21;19.40;53.90
59977;DHT22;45837;51.076;3.578;2023-02-01T02:15:56;19.40;53.90
59977;DHT22;45837;51.076;3.578;2023-02-01T02:41:53;19.30;53.80
59977;DHT22;45837;51.076;3.578;2023-02-01T02:44:48;19.30;53.90
59977;DHT22;45837;51.076;3.578;2023-02-01T02:47:36;19.30;53.80
59977;DHT22;45837;51.076;3.578;2023-02-01T02:50:11;19.20;53.80
59977;DHT22;45837;51.076;3.578;2023-02-01T02:53:17;19.20;53.80
59977;DHT22;45837;51.076;3.578;2023-02-01T02:56:05;19.20;53.80
59977;DHT22;45837;51.076;3.578;2023-02-01T02:58:50;19.20;53.90
59977;DHT22;45837;51.076;3.578;2023-02-01T03:01:36;19.20;53.90
59977;DHT22;45837;51.076;3.578;2023-02-01T03:04:21;19.20;53.90
59977;DHT22;45837;51.076;3.578;2023-02-01T03:06:49;19.20;53.90
59977;DHT22;45837;51.076;3.578;2023-02-01T03:09:18;19.20;53.90
59977;DHT22;45837;51.076;3.578;2023-02-01T03:11:44;19.10;53.80
59977;DHT22;45837;51.076;3.578;2023-02-01T03:14:30;19.10;53.80
59977;DHT22;45837;51.076;3.578;2023-02-01T03:16:59;19.10;54.00
59977;DHT22;45837;51.076;3.578;2023-02-01T03:19:31;19.10;53.90
59977;DHT22;45837;51.076;3.578;2023-02-01T03:22:08;19.10;53.80
59977;DHT22;45837;51.076;3.578;2023-02-01T03:24:46;19.10;53.80
59977;DHT22;45837;51.076;3.578;2023-02-01T03:32:15;19.10;53.90
59977;DHT22;45837;51.076;3.578;2023-02-01T03:34:41;19.00;53.80
59977;DHT22;45837;51.076;3.578;2023-02-01T03:37:08;19.00;53.80
59977;DHT22;45837;51.076;3.578;2023-02-01T03:42:05;19.00;53.90
59977;DHT22;45837;51.076;3.578;2023-02-01T03:44:36;19.00;53.90
59977;DHT22;45837;51.076;3.578;2023-02-01T03:47:05;19.10;53.90
59977;DHT22;45837;51.076;3.578;2023-02-01T03:49:35;19.00;53.80
59977;DHT22;45837;51.076;3.578;2023-02-01T03:52:03;19.00;53.90
59977;DHT22;45837;51.076;3.578;2023-02-01T03:54:30;19.00;53.90
59977;DHT22;45837;51.076;3.578;2023-02-01T03:56:59;19.00;53.90
59977;DHT22;45837;51.076;3.578;2023-02-01T03:59:25;19.00;53.90
59977;DHT22;45837;51.076;3.578;2023-02-01T04:01:51;18.90;53.80
59977;DHT22;45837;51.076;3.578;2023-02-01T04:04:18;18.90;53.90
59977;DHT22;45837;51.076;3.578;2023-02-01T04:06:50;18.90;53.90
59977;DHT22;45837;51.076;3.578;2023-02-01T04:09:16;18.90;53.90
59977;DHT22;45837;51.076;3.578;2023-02-01T04:11:42;18.90;53.90
59977;DHT22;45837;51.076;3.578;2023-02-01T04:14:08;18.90;53.90
59977;DHT22;45837;51.076;3.578;2023-02-01T04:16:34;18.90;53.90
59977;DHT22;45837;51.076;3.578;2023-02-01T04:19:00;18.90;54.00
59977;DHT22;45837;51.076;3.578;2023-02-01T04:21:26;18.90;53.90
59977;DHT22;45837;51.076;3.578;2023-02-01T04:23:52;18.90;53.80
59977;DHT22;45837;51.076;3.578;2023-02-01T04:26:18;18.90;53.90
59977;DHT22;45837;51.076;3.578;2023-02-01T04:28:44;18.80;53.90
59977;DHT22;45837;51.076;3.578;2023-02-01T04:31:13;18.90;53.90
59977;DHT22;45837;51.076;3.578;2023-02-01T04:33:39;18.90;53.90
59977;DHT22;45837;51.076;3.578;2023-02-01T04:36:04;18.80;53.90
59977;DHT22;45837;51.076;3.578;2023-02-01T04:38:30;18.80;53.90
59977;DHT22;45837;51.076;3.578;2023-02-01T04:40:57;18.80;54.50
59977;DHT22;45837;51.076;3.578;2023-02-01T04:43:23;18.80;53.90
59977;DHT22;45837;51.076;3.578;2023-02-01T04:45:49;18.80;53.80
59977;DHT22;45837;51.076;3.578;2023-02-01T04:48:16;18.80;53.90
59977;DHT22;45837;51.076;3.578;2023-02-01T04:50:42;18.80;53.90
59977;DHT22;45837;51.076;3.578;2023-02-01T04:53:08;18.80;53.80
59977;DHT22;45837;51.076;3.578;2023-02-01T04:55:33;18.80;53.90
59977;DHT22;45837;51.076;3.578;2023-02-01T04:57:59;18.80;53.90
59977;DHT22;45837;51.076;3.578;2023-02-01T05:00:25;18.80;53.90
59977;DHT22;45837;51.076;3.578;2023-02-01T05:02:50;18.80;53.90
59977;DHT22;45837;51.076;3.578;2023-02-01T05:05:16;18.80;53.90
59977;DHT22;45837;51.076;3.578;2023-02-01T05:07:42;18.80;53.90
59977;DHT22;45837;51.076;3.578;2023-02-01T05:10:08;18.80;53.90
59977;DHT22;45837;51.076;3.578;2023-02-01T05:12:33;18.80;53.90
59977;DHT22;45837;51.076;3.578;2023-02-01T05:15:17;18.80;53.80
59977;DHT22;45837;51.076;3.578;2023-02-01T05:17:43;18.80;53.90
59977;DHT22;45837;51.076;3.578;2023-02-01T05:20:09;18.70;54.00
59977;DHT22;45837;51.076;3.578;2023-02-01T05:22:35;18.70;53.80
59977;DHT22;45837;51.076;3.578;2023-02-01T05:25:00;18.70;53.90
59977;DHT22;45837;51.076;3.578;2023-02-01T05:27:28;18.70;53.90
59977;DHT22;45837;51.076;3.578;2023-02-01T05:29:54;18.70;53.80
59977;DHT22;45837;51.076;3.578;2023-02-01T05:32:19;18.70;53.90
59977;DHT22;45837;51.076;3.578;2023-02-01T05:34:45;18.70;53.90
59977;DHT22;45837;51.076;3.578;2023-02-01T05:37:11;18.70;54.00
59977;DHT22;45837;51.076;3.578;2023-02-01T05:39:36;18.70;53.80
59977;DHT22;45837;51.076;3.578;2023-02-01T05:42:02;18.70;53.80
59977;DHT22;45837;51.076;3.578;2023-02-01T05:44:28;18.70;54.00
59977;DHT22;45837;51.076;3.578;2023-02-01T05:46:53;18.60;53.90
59977;DHT22;45837;51.076;3.578;2023-02-01T05:49:19;18.60;53.90
59977;DHT22;45837;51.076;3.578;2023-02-01T05:51:45;18.60;53.70
59977;DHT22;45837;51.076;3.578;2023-02-01T05:54:11;18.60;53.50
59977;DHT22;45837;51.076;3.578;2023-02-01T05:56:36;18.60;53.70
59977;DHT22;45837;51.076;3.578;2023-02-01T05:59:02;18.70;53.70
59977;DHT22;45837;51.076;3.578;2023-02-01T06:01:28;18.60;53.70
59977;DHT22;45837;51.076;3.578;2023-02-01T06:03:53;18.60;53.50
59977;DHT22;45837;51.076;3.578;2023-02-01T06:06:19;18.60;53.70
59977;DHT22;45837;51.076;3.578;2023-02-01T06:08:45;18.60;53.50
59977;DHT22;45837;51.076;3.578;2023-02-01T06:11:11;18.60;53.50
59977;DHT22;45837;51.076;3.578;2023-02-01T06:13:36;18.50;53.40
59977;DHT22;45837;51.076;3.578;2023-02-01T06:16:04;18.50;53.30
59977;DHT22;45837;51.076;3.578;2023-02-01T06:18:31;18.50;53.50
59977;DHT22;45837;51.076;3.578;2023-02-01T06:20:57;18.50;53.70
59977;DHT22;45837;51.076;3.578;2023-02-01T06:23:25;18.50;53.90
59977;DHT22;45837;51.076;3.578;2023-02-01T06:25:51;18.60;54.10
59977;DHT22;45837;51.076;3.578;2023-02-01T06:28:17;18.60;54.40
59977;DHT22;45837;51.076;3.578;2023-02-01T06:30:43;18.60;54.60
59977;DHT22;45837;51.076;3.578;2023-02-01T06:33:13;18.70;54.80
59977;DHT22;45837;51.076;3.578;2023-02-01T06:35:41;18.80;54.70
59977;DHT22;45837;51.076;3.578;2023-02-01T06:38:07;18.80;54.90
59977;DHT22;45837;51.076;3.578;2023-02-01T06:40:33;18.90;55.20
59977;DHT22;45837;51.076;3.578;2023-02-01T06:42:59;18.90;55.20
59977;DHT22;45837;51.076;3.578;2023-02-01T06:45:24;19.00;55.50
59977;DHT22;45837;51.076;3.578;2023-02-01T06:47:50;19.00;55.40
59977;DHT22;45837;51.076;3.578;2023-02-01T06:50:16;19.10;55.30
59977;DHT22;45837;51.076;3.578;2023-02-01T06:52:42;19.10;55.40
59977;DHT22;45837;51.076;3.578;2023-02-01T06:55:07;19.20;55.60
59977;DHT22;45837;51.076;3.578;2023-02-01T06:57:33;19.20;55.40
59977;DHT22;45837;51.076;3.578;2023-02-01T07:00:02;19.30;55.40
59977;DHT22;45837;51.076;3.578;2023-02-01T07:02:28;19.30;55.40
59977;DHT22;45837;51.076;3.578;2023-02-01T07:04:54;19.40;55.50
59977;DHT22;45837;51.076;3.578;2023-02-01T07:07:20;19.50;55.40
59977;DHT22;45837;51.076;3.578;2023-02-01T07:09:50;19.60;55.00
59977;DHT22;45837;51.076;3.578;2023-02-01T07:12:16;19.70;54.60
59977;DHT22;45837;51.076;3.578;2023-02-01T07:14:42;19.80;54.30
59977;DHT22;45837;51.076;3.578;2023-02-01T07:17:07;19.90;54.20
59977;DHT22;45837;51.076;3.578;2023-02-01T07:19:33;19.90;54.10
59977;DHT22;45837;51.076;3.578;2023-02-01T07:21:59;20.00;54.00
59977;DHT22;45837;51.076;3.578;2023-02-01T07:24:25;20.00;53.80
59977;DHT22;45837;51.076;3.578;2023-02-01T07:26:50;20.10;53.70
59977;DHT22;45837;51.076;3.578;2023-02-01T07:29:17;20.20;53.60
59977;DHT22;45837;51.076;3.578;2023-02-01T07:31:42;20.20;53.30
59977;DHT22;45837;51.076;3.578;2023-02-01T07:34:08;20.30;53.30
59977;DHT22;45837;51.076;3.578;2023-02-01T07:36:34;20.30;53.10
59977;DHT22;45837;51.076;3.578;2023-02-01T07:39:04;20.30;53.00
59977;DHT22;45837;51.076;3.578;2023-02-01T07:41:29;20.40;53.00
59977;DHT22;45837;51.076;3.578;2023-02-01T07:43:55;20.40;52.90
59977;DHT22;45837;51.076;3.578;2023-02-01T07:46:21;20.50;52.90
59977;DHT22;45837;51.076;3.578;2023-02-01T07:48:46;20.50;52.80
59977;DHT22;45837;51.076;3.578;2023-02-01T07:51:13;20.60;52.80
59977;DHT22;45837;51.076;3.578;2023-02-01T07:53:39;20.60;52.70
59977;DHT22;45837;51.076;3.578;2023-02-01T07:56:10;20.60;52.70
59977;DHT22;45837;51.076;3.578;2023-02-01T07:58:36;20.60;52.30
59977;DHT22;45837;51.076;3.578;2023-02-01T08:01:02;20.60;52.30
59977;DHT22;45837;51.076;3.578;2023-02-01T08:03:47;20.70;52.70
59977;DHT22;45837;51.076;3.578;2023-02-01T08:06:12;20.70;52.80
59977;DHT22;45837;51.076;3.578;2023-02-01T08:08:38;20.70;53.10
59977;DHT22;45837;51.076;3.578;2023-02-01T08:11:04;20.70;53.10
59977;DHT22;45837;51.076;3.578;2023-02-01T08:13:31;20.80;53.20
59977;DHT22;45837;51.076;3.578;2023-02-01T08:16:00;20.80;53.00
59977;DHT22;45837;51.076;3.578;2023-02-01T08:18:26;20.80;52.60
59977;DHT22;45837;51.076;3.578;2023-02-01T08:20:52;20.80;52.50
59977;DHT22;45837;51.076;3.578;2023-02-01T08:23:18;20.80;52.60
59977;DHT22;45837;51.076;3.578;2023-02-01T08:25:44;20.80;52.40
59977;DHT22;45837;51.076;3.578;2023-02-01T08:28:10;20.80;52.30
59977;DHT22;45837;51.076;3.578;2023-02-01T08:30:36;20.80;52.20
59977;DHT22;45837;51.076;3.578;2023-02-01T08:33:03;20.80;52.10
59977;DHT22;45837;51.076;3.578;2023-02-01T08:35:28;20.70;52.10
59977;DHT22;45837;51.076;3.578;2023-02-01T08:37:54;20.80;52.00
59977;DHT22;45837;51.076;3.578;2023-02-01T08:40:20;20.80;52.00
59977;DHT22;45837;51.076;3.578;2023-02-01T08:42:47;20.70;52.00
59977;DHT22;45837;51.076;3.578;2023-02-01T08:45:23;20.70;52.00
59977;DHT22;45837;51.076;3.578;2023-02-01T08:47:50;20.70;52.00
59977;DHT22;45837;51.076;3.578;2023-02-01T08:50:15;20.60;51.90
59977;DHT22;45837;51.076;3.578;2023-02-01T08:52:41;20.60;51.90
59977;DHT22;45837;51.076;3.578;2023-02-01T08:55:07;20.60;51.80
59977;DHT22;45837;51.076;3.578;2023-02-01T08:57:33;20.60;51.90
59977;DHT22;45837;51.076;3.578;2023-02-01T08:59:59;20.60;51.90
59977;DHT22;45837;51.076;3.578;2023-02-01T09:02:25;20.50;51.90
59977;DHT22;45837;51.076;3.578;2023-02-01T09:04:51;20.50;51.80
59977;DHT22;45837;51.076;3.578;2023-02-01T09:07:17;20.50;51.80
59977;DHT22;45837;51.076;3.578;2023-02-01T09:09:44;20.50;51.70
59977;DHT22;45837;51.076;3.578;2023-02-01T09:12:10;20.50;51.70
59977;DHT22;45837;51.076;3.578;2023-02-01T09:14:35;20.40;51.80
59977;DHT22;45837;51.076;3.578;2023-02-01T09:17:01;20.40;51.90
59977;DHT22;45837;51.076;3.578;2023-02-01T09:19:27;20.40;51.90
59977;DHT22;45837;51.076;3.578;2023-02-01T09:21:52;20.30;52.00
59977;DHT22;45837;51.076;3.578;2023-02-01T09:24:18;20.30;52.10
59977;DHT22;45837;51.076;3.578;2023-02-01T09:26:44;20.20;52.10
59977;DHT22;45837;51.076;3.578;2023-02-01T09:29:10;20.20;52.10
59977;DHT22;45837;51.076;3.578;2023-02-01T09:31:36;20.20;52.20
59977;DHT22;45837;51.076;3.578;2023-02-01T09:34:02;20.10;52.10
59977;DHT22;45837;51.076;3.578;2023-02-01T09:36:27;20.10;52.20
59977;DHT22;45837;51.076;3.578;2023-02-01T09:38:53;20.10;52.30
59977;DHT22;45837;51.076;3.578;2023-02-01T09:46:36;20.00;52.30
59977;DHT22;45837;51.076;3.578;2023-02-01T09:49:12;20.10;52.30
59977;DHT22;45837;51.076;3.578;2023-02-01T09:51:42;20.00;52.30
59977;DHT22;45837;51.076;3.578;2023-02-01T09:54:11;20.00;52.30
59977;DHT22;45837;51.076;3.578;2023-02-01T09:56:42;20.00;52.30
59977;DHT22;45837;51.076;3.578;2023-02-01T10:01:56;20.00;52.20
59977;DHT22;45837;51.076;3.578;2023-02-01T10:04:22;20.00;52.20
59977;DHT22;45837;51.076;3.578;2023-02-01T10:06:54;19.90;52.20
59977;DHT22;45837;51.076;3.578;2023-02-01T10:22:09;19.80;52.00
59977;DHT22;45837;51.076;3.578;2023-02-01T10:24:42;19.80;52.00
59977;DHT22;45837;51.076;3.578;2023-02-01T10:27:12;19.80;52.00
59977;DHT22;45837;51.076;3.578;2023-02-01T10:29:42;19.80;52.00
59977;DHT22;45837;51.076;3.578;2023-02-01T10:32:12;19.80;51.90
59977;DHT22;45837;51.076;3.578;2023-02-01T10:34:38;19.80;51.90
59977;DHT22;45837;51.076;3.578;2023-02-01T10:39:33;19.80;51.80
59977;DHT22;45837;51.076;3.578;2023-02-01T10:41:59;19.70;51.70
59977;DHT22;45837;51.076;3.578;2023-02-01T10:44:26;19.70;51.70
59977;DHT22;45837;51.076;3.578;2023-02-01T10:46:52;19.70;51.60
59977;DHT22;45837;51.076;3.578;2023-02-01T10:49:26;19.70;51.60
59977;DHT22;45837;51.076;3.578;2023-02-01T10:51:57;19.70;51.50
59977;DHT22;45837;51.076;3.578;2023-02-01T10:54:34;19.70;51.60
59977;DHT22;45837;51.076;3.578;2023-02-01T10:56:59;19.70;51.50
59977;DHT22;45837;51.076;3.578;2023-02-01T10:59:27;19.70;51.50
59977;DHT22;45837;51.076;3.578;2023-02-01T11:02:00;19.70;51.50
59977;DHT22;45837;51.076;3.578;2023-02-01T11:04:36;19.70;51.40
59977;DHT22;45837;51.076;3.578;2023-02-01T11:07:07;19.70;51.70
59977;DHT22;45837;51.076;3.578;2023-02-01T11:09:35;19.70;51.80
59977;DHT22;45837;51.076;3.578;2023-02-01T11:12:03;19.70;51.90
59977;DHT22;45837;51.076;3.578;2023-02-01T11:14:34;19.70;52.00
59977;DHT22;45837;51.076;3.578;2023-02-01T11:19:26;19.70;52.10
59977;DHT22;45837;51.076;3.578;2023-02-01T11:21:54;19.70;51.90
59977;DHT22;45837;51.076;3.578;2023-02-01T11:24:29;19.70;52.00
59977;DHT22;45837;51.076;3.578;2023-02-01T11:26:57;19.70;52.10
59977;DHT22;45837;51.076;3.578;2023-02-01T11:29:23;19.70;52.10
59977;DHT22;45837;51.076;3.578;2023-02-01T11:31:56;19.70;52.10
59977;DHT22;45837;51.076;3.578;2023-02-01T11:34:24;19.70;52.00
59977;DHT22;45837;51.076;3.578;2023-02-01T11:36:51;19.50;51.90
59977;DHT22;45837;51.076;3.578;2023-02-01T11:44:35;19.70;52.10
59977;DHT22;45837;51.076;3.578;2023-02-01T11:49:46;19.70;52.00
59977;DHT22;45837;51.076;3.578;2023-02-01T11:52:16;19.70;52.00
59977;DHT22;45837;51.076;3.578;2023-02-01T11:57:35;19.70;51.90
59977;DHT22;45837;51.076;3.578;2023-02-01T12:02:57;19.70;51.90
59977;DHT22;45837;51.076;3.578;2023-02-01T12:05:46;19.70;51.80
59977;DHT22;45837;51.076;3.578;2023-02-01T12:11:14;19.70;51.70
59977;DHT22;45837;51.076;3.578;2023-02-01T12:18:48;19.60;51.60
59977;DHT22;45837;51.076;3.578;2023-02-01T12:26:32;19.60;51.60
59977;DHT22;45837;51.076;3.578;2023-02-01T12:34:17;19.60;51.60
59977;DHT22;45837;51.076;3.578;2023-02-01T12:41:47;19.60;52.30
59977;DHT22;45837;51.076;3.578;2023-02-01T12:47:06;19.80;52.50
59977;DHT22;45837;51.076;3.578;2023-02-01T12:52:06;19.80;52.60
59977;DHT22;45837;51.076;3.578;2023-02-01T12:57:05;20.00;52.50
59977;DHT22;45837;51.076;3.578;2023-02-01T12:59:34;20.00;52.40
59977;DHT22;45837;51.076;3.578;2023-02-01T13:02:05;20.10;52.60
59977;DHT22;45837;51.076;3.578;2023-02-01T13:04:42;20.20;52.80
59977;DHT22;45837;51.076;3.578;2023-02-01T13:07:21;20.20;52.80
59977;DHT22;45837;51.076;3.578;2023-02-01T13:09:50;20.30;53.20
59977;DHT22;45837;51.076;3.578;2023-02-01T13:12:19;20.30;53.60
59977;DHT22;45837;51.076;3.578;2023-02-01T13:14:48;20.40;52.30
59977;DHT22;45837;51.076;3.578;2023-02-01T13:17:18;20.50;51.90
59977;DHT22;45837;51.076;3.578;2023-02-01T13:22:31;20.70;51.60
59977;DHT22;45837;51.076;3.578;2023-02-01T13:24:58;20.70;51.40
59977;DHT22;45837;51.076;3.578;2023-02-01T13:27:28;20.70;51.20
59977;DHT22;45837;51.076;3.578;2023-02-01T13:30:01;20.80;51.20
59977;DHT22;45837;51.076;3.578;2023-02-01T13:35:18;20.80;51.00
59977;DHT22;45837;51.076;3.578;2023-02-01T13:42:56;20.80;50.10
59977;DHT22;45837;51.076;3.578;2023-02-01T13:45:23;20.80;49.70
59977;DHT22;45837;51.076;3.578;2023-02-01T13:47:51;20.80;49.40
59977;DHT22;45837;51.076;3.578;2023-02-01T13:55:29;20.80;48.40
59977;DHT22;45837;51.076;3.578;2023-02-01T13:58:00;20.80;48.20
59977;DHT22;45837;51.076;3.578;2023-02-01T14:00:31;20.80;48.00
59977;DHT22;45837;51.076;3.578;2023-02-01T14:13:29;20.60;47.70
59977;DHT22;45837;51.076;3.578;2023-02-01T14:23:47;20.30;47.60
59977;DHT22;45837;51.076;3.578;2023-02-01T14:26:14;20.30;47.50
59977;DHT22;45837;51.076;3.578;2023-02-01T14:28:51;20.20;47.50
59977;DHT22;45837;51.076;3.578;2023-02-01T14:33:55;20.20;47.30
59977;DHT22;45837;51.076;3.578;2023-02-01T14:36:22;20.20;47.30
59977;DHT22;45837;51.076;3.578;2023-02-01T14:38:48;20.20;47.20
59977;DHT22;45837;51.076;3.578;2023-02-01T14:41:26;20.20;47.20
59977;DHT22;45837;51.076;3.578;2023-02-01T14:44:27;20.20;47.00
59977;DHT22;45837;51.076;3.578;2023-02-01T14:49:32;20.10;47.10
59977;DHT22;45837;51.076;3.578;2023-02-01T14:51:58;20.10;47.00
59977;DHT22;45837;51.076;3.578;2023-02-01T14:54:24;20.00;46.90
59977;DHT22;45837;51.076;3.578;2023-02-01T14:56:51;20.00;46.80
59977;DHT22;45837;51.076;3.578;2023-02-01T14:59:17;20.00;46.80
59977;DHT22;45837;51.076;3.578;2023-02-01T15:01:48;20.00;46.60
59977;DHT22;45837;51.076;3.578;2023-02-01T15:04:17;20.00;46.50
59977;DHT22;45837;51.076;3.578;2023-02-01T15:06:47;20.00;46.50
59977;DHT22;45837;51.076;3.578;2023-02-01T15:09:15;20.00;46.30
59977;DHT22;45837;51.076;3.578;2023-02-01T15:14:27;19.90;46.00
59977;DHT22;45837;51.076;3.578;2023-02-01T15:16:53;19.90;46.00
59977;DHT22;45837;51.076;3.578;2023-02-01T15:19:19;19.90;46.00
59977;DHT22;45837;51.076;3.578;2023-02-01T15:21:48;19.90;45.90
59977;DHT22;45837;51.076;3.578;2023-02-01T15:24:18;19.80;45.80
59977;DHT22;45837;51.076;3.578;2023-02-01T15:26:44;19.80;45.80
59977;DHT22;45837;51.076;3.578;2023-02-01T15:29:11;19.80;45.80
59977;DHT22;45837;51.076;3.578;2023-02-01T15:31:40;19.80;45.80
59977;DHT22;45837;51.076;3.578;2023-02-01T15:34:06;19.80;45.60
59977;DHT22;45837;51.076;3.578;2023-02-01T15:36:32;19.70;46.00
59977;DHT22;45837;51.076;3.578;2023-02-01T15:39:18;19.70;46.50
59977;DHT22;45837;51.076;3.578;2023-02-01T15:41:53;19.80;46.90
59977;DHT22;45837;51.076;3.578;2023-02-01T15:44:21;19.60;47.20
59977;DHT22;45837;51.076;3.578;2023-02-01T15:46:53;19.70;47.60
59977;DHT22;45837;51.076;3.578;2023-02-01T15:49:32;19.80;47.80
59977;DHT22;45837;51.076;3.578;2023-02-01T15:52:01;19.80;47.90
59977;DHT22;45837;51.076;3.578;2023-02-01T15:54:36;19.80;48.20
59977;DHT22;45837;51.076;3.578;2023-02-01T15:57:03;19.90;48.40
59977;DHT22;45837;51.076;3.578;2023-02-01T15:59:51;19.90;48.30
59977;DHT22;45837;51.076;3.578;2023-02-01T16:02:35;20.00;48.00
59977;DHT22;45837;51.076;3.578;2023-02-01T16:05:03;20.10;47.80
59977;DHT22;45837;51.076;3.578;2023-02-01T16:07:30;20.20;47.70
59977;DHT22;45837;51.076;3.578;2023-02-01T16:09:57;20.20;47.80
59977;DHT22;45837;51.076;3.578;2023-02-01T16:12:28;20.30;48.00
59977;DHT22;45837;51.076;3.578;2023-02-01T16:14:55;20.30;47.50
59977;DHT22;45837;51.076;3.578;2023-02-01T16:17:21;20.40;47.50
59977;DHT22;45837;51.076;3.578;2023-02-01T16:19:47;20.40;47.30
59977;DHT22;45837;51.076;3.578;2023-02-01T16:22:12;20.50;47.10
59977;DHT22;45837;51.076;3.578;2023-02-01T16:24:38;20.60;47.00
59977;DHT22;45837;51.076;3.578;2023-02-01T16:27:04;20.60;46.90
59977;DHT22;45837;51.076;3.578;2023-02-01T16:29:32;20.70;46.60
59977;DHT22;45837;51.076;3.578;2023-02-01T16:31:58;20.70;46.60
59977;DHT22;45837;51.076;3.578;2023-02-01T16:34:24;20.70;46.30
59977;DHT22;45837;51.076;3.578;2023-02-01T16:36:50;20.60;45.40
59977;DHT22;45837;51.076;3.578;2023-02-01T16:39:18;20.60;45.60
59977;DHT22;45837;51.076;3.578;2023-02-01T16:41:44;20.60;46.30
59977;DHT22;45837;51.076;3.578;2023-02-01T16:44:10;20.60;47.50
59977;DHT22;45837;51.076;3.578;2023-02-01T16:46:38;20.60;48.30
59977;DHT22;45837;51.076;3.578;2023-02-01T16:49:04;20.60;48.80
59977;DHT22;45837;51.076;3.578;2023-02-01T16:51:31;20.70;49.10
59977;DHT22;45837;51.076;3.578;2023-02-01T16:53:58;20.70;49.40
59977;DHT22;45837;51.076;3.578;2023-02-01T16:56:31;20.80;49.70
59977;DHT22;45837;51.076;3.578;2023-02-01T16:58:57;20.80;49.90
59977;DHT22;45837;51.076;3.578;2023-02-01T17:01:22;20.80;50.00
59977;DHT22;45837;51.076;3.578;2023-02-01T17:03:48;20.90;50.20
59977;DHT22;45837;51.076;3.578;2023-02-01T17:06:17;20.90;50.20
59977;DHT22;45837;51.076;3.578;2023-02-01T17:08:47;20.90;50.40
59977;DHT22;45837;51.076;3.578;2023-02-01T17:11:15;20.90;50.50
59977;DHT22;45837;51.076;3.578;2023-02-01T17:13:41;20.90;50.70
59977;DHT22;45837;51.076;3.578;2023-02-01T17:18:59;20.90;50.60
59977;DHT22;45837;51.076;3.578;2023-02-01T17:21:28;21.00;50.90
59977;DHT22;45837;51.076;3.578;2023-02-01T17:23:54;21.00;51.00
59977;DHT22;45837;51.076;3.578;2023-02-01T17:26:20;21.00;51.20
59977;DHT22;45837;51.076;3.578;2023-02-01T17:28:46;21.00;51.40
59977;DHT22;45837;51.076;3.578;2023-02-01T17:31:12;21.00;51.50
59977;DHT22;45837;51.076;3.578;2023-02-01T17:33:39;21.00;51.70
59977;DHT22;45837;51.076;3.578;2023-02-01T17:36:05;21.00;51.70
59977;DHT22;45837;51.076;3.578;2023-02-01T17:38:31;21.00;51.70
59977;DHT22;45837;51.076;3.578;2023-02-01T17:40:57;21.00;51.70
59977;DHT22;45837;51.076;3.578;2023-02-01T17:43:23;21.00;51.30
59977;DHT22;45837;51.076;3.578;2023-02-01T17:45:54;21.00;51.10
59977;DHT22;45837;51.076;3.578;2023-02-01T17:48:21;21.00;51.10
59977;DHT22;45837;51.076;3.578;2023-02-01T17:50:47;21.00;51.20
59977;DHT22;45837;51.076;3.578;2023-02-01T17:53:15;21.00;50.10
59977;DHT22;45837;51.076;3.578;2023-02-01T17:55:42;20.90;47.30
59977;DHT22;45837;51.076;3.578;2023-02-01T17:58:12;20.80;47.50
59977;DHT22;45837;51.076;3.578;2023-02-01T18:00:39;20.80;48.00
59977;DHT22;45837;51.076;3.578;2023-02-01T18:03:04;20.80;48.80